Time;durP1;ratioP1;P1;durP2;ratioP2;P2;SDS_P1;SDS_P2;PMS_P1;PMS_P2;Temp;Humidity;BMP_temperature;BMP_pressure;BME280_temperature;BME280_humidity;BME280_pressure;Samples;Min_cycle;Max_cycle;Signal;HPM_P1;HPM_P2
2021/05/22 00:01:37;;;;;;;6.32;1.30;;;;;;;23.82;43.25;99171.47;4483527;32;33925;-60
2021/05/22 00:04:08;;;;;;;5.85;1.40;;;;;;;23.85;43.22;99160.09;4484013;32;34742;-60
2021/05/22 00:06:36;;;;;;;5.32;1.40;;;;;;;23.85;43.17;99147.28;4484033;32;33644;-60
2021/05/22 00:09:04;;;;;;;4.60;1.50;;;;;;;23.84;43.22;99155.72;4483833;32;33739;-60
2021/05/22 00:11:35;;;;;;;8.02;1.55;;;;;;;23.83;43.20;99157.63;4483756;32;33258;-60
2021/05/22 00:14:05;;;;;;;;;;;;;;;23.82;43.22;99153.22;4484117;32;34035;-60
2021/05/22 00:16:33;;;;;;;4.60;1.30;;;;;;;23.92;43.01;99164.31;4483891;32;33683;-61
2021/05/22 00:19:01;;;;;;;6.75;1.50;;;;;;;23.84;43.10;99150.25;4484098;32;33907;-59
2021/05/22 00:21:29;;;;;;;6.30;1.37;;;;;;;23.82;43.15;99163.28;4483517;32;33915;-60
2021/05/22 00:23:56;;;;;;;7.72;1.40;;;;;;;23.80;43.09;99144.47;4483864;32;34796;-60
2021/05/22 00:26:24;;;;;;;8.50;1.20;;;;;;;23.81;43.36;99151.56;4483967;32;33520;-60
2021/05/22 00:28:52;;;;;;;8.25;1.45;;;;;;;23.80;43.46;99149.91;4483583;32;34521;-59
2021/05/22 00:31:20;;;;;;;2.50;1.05;;;;;;;23.80;43.42;99158.09;4483669;32;33965;-60
2021/05/22 00:33:47;;;;;;;5.82;1.30;;;;;;;23.81;43.38;99154.28;4483576;32;34146;-60
2021/05/22 00:36:15;;;;;;;4.50;1.10;;;;;;;23.80;43.25;99147.19;4483501;32;34604;-60
2021/05/22 00:38:42;;;;;;;7.47;1.70;;;;;;;23.81;43.29;99143.38;4483524;32;33459;-60
2021/05/22 00:41:10;;;;;;;5.85;1.35;;;;;;;23.81;43.37;99131.66;4483681;32;33740;-61
2021/05/22 00:43:37;;;;;;;5.95;1.20;;;;;;;23.80;43.29;99130.03;4483769;32;34694;-60
2021/05/22 00:46:05;;;;;;;4.90;1.17;;;;;;;23.81;43.35;99139.84;4483581;32;33556;-60
2021/05/22 00:48:33;;;;;;;5.80;1.20;;;;;;;23.80;43.33;99138.19;4483557;32;34432;-60
2021/05/22 00:51:00;;;;;;;9.02;1.37;;;;;;;23.80;43.32;99140.91;4483280;32;34775;-60
2021/05/22 00:53:28;;;;;;;5.20;1.45;;;;;;;23.80;43.35;99132.75;4483510;32;34046;-60
2021/05/22 00:56:00;;;;;;;3.85;1.00;;;;;;;23.80;43.24;99135.47;4483412;32;33555;-60
2021/05/22 00:58:27;;;;;;;6.90;1.42;;;;;;;23.79;43.24;99131.94;4469074;32;34542;-60
2021/05/22 01:00:56;;;;;;;4.57;1.20;;;;;;;23.80;43.29;99130.84;4483279;32;33506;-61
2021/05/22 01:03:31;;;;;;;4.50;1.40;;;;;;;23.79;43.17;99131.09;4483158;32;33982;-60
2021/05/22 01:06:12;;;;;;;3.25;1.15;;;;;;;23.79;43.14;99123.75;4483341;32;33518;-59
2021/05/22 01:08:39;;;;;;;4.78;1.35;;;;;;;23.81;43.21;99121.59;4483286;32;33770;-60
2021/05/22 01:11:12;;;;;;;5.32;1.35;;;;;;;23.80;43.15;99116.41;4482995;32;34661;-60
2021/05/22 01:13:40;;;;;;;5.28;1.52;;;;;;;23.79;43.20;99131.09;4481968;32;34119;-60
2021/05/22 01:16:07;;;;;;;3.45;1.33;;;;;;;23.79;43.10;99125.66;4468950;32;33201;-60
2021/05/22 01:18:35;;;;;;;5.20;1.15;;;;;;;23.79;43.21;99120.22;4469030;32;34157;-60
2021/05/22 01:21:03;;;;;;;2.90;1.15;;;;;;;23.79;43.15;99107.41;4469020;32;33549;-61
2021/05/22 01:23:34;;;;;;;2.97;1.37;;;;;;;23.79;43.25;99109.31;4469787;32;34054;-60
2021/05/22 01:26:01;;;;;;;5.50;1.37;;;;;;;23.78;43.36;99113.94;4484982;32;34705;-60
2021/05/22 01:28:29;;;;;;;3.17;1.10;;;;;;;23.79;43.37;99117.47;4483801;32;33643;-60
2021/05/22 01:30:57;;;;;;;4.82;1.30;;;;;;;23.77;43.29;99106.81;4483664;32;33912;-60
2021/05/22 01:33:25;;;;;;;4.55;1.20;;;;;;;23.77;43.37;99106.81;4485034;32;34144;-60
2021/05/22 01:35:52;;;;;;;6.00;1.40;;;;;;;23.79;43.23;99090.25;4485387;32;33649;-60
2021/05/22 01:38:20;;;;;;;4.70;1.10;;;;;;;23.78;43.24;99094.00;4484723;32;33982;-60
2021/05/22 01:40:49;;;;;;;2.72;1.40;;;;;;;23.78;43.21;99091.28;4485153;32;34975;-60
2021/05/22 01:43:19;;;;;;;3.67;1.20;;;;;;;23.77;43.29;99095.91;4484947;32;34997;-60
2021/05/22 01:45:48;;;;;;;3.20;1.02;;;;;;;23.77;43.17;99103.25;4484852;32;33483;-61
2021/05/22 01:48:25;;;;;;;5.53;1.10;;;;;;;23.77;43.16;99095.09;4471112;32;34418;-60
2021/05/22 01:51:06;;;;;;;3.55;1.00;;;;;;;23.78;43.08;99097.59;4484702;32;33739;-60
2021/05/22 01:53:53;;;;;;;3.40;1.10;;;;;;;23.77;43.18;99093.19;4484007;32;33846;-60
2021/05/22 01:56:21;;;;;;;2.70;1.30;;;;;;;23.77;43.16;99101.37;4483547;32;33516;-60
2021/05/22 01:58:49;;;;;;;5.15;1.37;;;;;;;23.76;43.29;99096.16;4484935;32;33808;-60
2021/05/22 02:01:16;;;;;;;6.03;1.50;;;;;;;23.76;43.36;99091.53;4470542;32;33120;-60
2021/05/22 02:03:48;;;;;;;6.37;1.20;;;;;;;23.76;43.33;99090.72;4483703;32;34127;-60
2021/05/22 02:06:21;;;;;;;2.35;0.98;;;;;;;23.74;43.43;99098.31;4483256;32;34299;-60
2021/05/22 02:08:49;;;;;;;6.12;1.25;;;;;;;23.75;43.43;99094.53;4484577;32;33708;-61
2021/05/22 02:11:17;;;;;;;6.72;1.17;;;;;;;23.75;43.28;99099.97;4484659;32;34904;-60
2021/05/22 02:13:44;;;;;;;2.80;1.10;;;;;;;23.75;43.37;99099.97;4484734;32;33962;-60
2021/05/22 02:16:14;;;;;;;4.00;1.00;;;;;;;23.74;43.39;99092.88;4470307;32;33644;-60
2021/05/22 02:18:43;;;;;;;3.47;1.10;;;;;;;23.74;43.41;99103.78;4470896;32;33745;-60
2021/05/22 02:21:11;;;;;;;3.10;0.98;;;;;;;23.74;43.39;99101.06;4467939;32;34641;-60
2021/05/22 02:23:45;;;;;;;1.77;0.82;;;;;;;23.74;43.41;99106.50;4467557;32;33759;-60
2021/05/22 02:26:13;;;;;;;3.47;1.35;;;;;;;23.74;43.41;99101.06;4467708;32;33556;-60
2021/05/22 02:28:41;;;;;;;2.00;0.90;;;;;;;23.73;43.33;99099.38;4467750;32;33759;-60
2021/05/22 02:31:09;;;;;;;6.82;1.23;;;;;;;23.72;43.38;99106.72;4454655;32;35102;-60
2021/05/22 02:33:37;;;;;;;4.22;1.15;;;;;;;23.72;43.40;99104.00;4467615;32;34103;-60
2021/05/22 02:36:05;;;;;;;2.42;0.90;;;;;;;23.73;43.36;99110.28;4467064;32;33161;-60
2021/05/22 02:38:34;;;;;;;3.42;0.90;;;;;;;23.72;43.42;99108.63;4468603;32;34531;-60
2021/05/22 02:41:05;;;;;;;2.10;0.90;;;;;;;23.72;43.35;99108.63;4454882;32;34203;-60
2021/05/22 02:43:33;;;;;;;;;;;;;;;23.72;43.43;99108.63;4454939;32;35488;-60
2021/05/22 02:46:00;;;;;;;5.57;1.98;;;;;;;23.82;43.24;99100.63;4467883;32;33773;-59
2021/05/22 02:48:28;;;;;;;5.25;1.23;;;;;;;23.74;43.40;99104.59;4454761;32;33832;-60
2021/05/22 02:50:55;;;;;;;10.68;1.30;;;;;;;23.72;43.50;99105.91;4467353;32;33897;-60
2021/05/22 02:53:23;;;;;;;3.70;1.17;;;;;;;23.70;43.50;99106.16;4454698;32;33482;-60
2021/05/22 02:55:51;;;;;;;2.87;0.90;;;;;;;23.71;43.42;99104.25;4467617;32;33597;-60
2021/05/22 02:58:19;;;;;;;2.25;1.00;;;;;;;23.71;43.52;99117.87;4467403;32;33836;-60
2021/05/22 03:00:47;;;;;;;2.75;0.90;;;;;;;23.69;43.55;99126.28;4454918;32;33591;-60
2021/05/22 03:03:18;;;;;;;2.97;1.12;;;;;;;23.71;43.43;99123.31;4468712;32;34140;-60
2021/05/22 03:05:45;;;;;;;3.35;1.10;;;;;;;23.68;43.54;99121.91;4467293;32;34663;-60
2021/05/22 03:08:13;;;;;;;1.35;0.88;;;;;;;23.69;43.49;99112.69;4468800;32;33981;-59
2021/05/22 03:10:40;;;;;;;2.47;0.90;;;;;;;23.71;43.52;99117.87;4468564;32;33811;-61
2021/05/22 03:13:08;;;;;;;2.40;1.12;;;;;;;23.71;43.40;99117.87;4468385;32;34202;-60
2021/05/22 03:15:35;;;;;;;2.33;0.88;;;;;;;23.70;43.45;99110.78;4468756;32;33543;-60
2021/05/22 03:18:03;;;;;;;3.15;0.98;;;;;;;23.71;43.54;99115.16;4468921;32;33485;-61
2021/05/22 03:20:35;;;;;;;5.22;1.15;;;;;;;23.70;43.56;99119.78;4477004;32;33891;-60
2021/05/22 03:23:03;;;;;;;2.90;0.90;;;;;;;23.71;43.49;99110.53;4484310;32;34007;-60
2021/05/22 03:25:30;;;;;;;3.95;1.10;;;;;;;23.71;43.43;99105.06;4484298;32;33449;-60
2021/05/22 03:27:58;;;;;;;2.45;1.08;;;;;;;23.71;43.55;99102.34;4484006;32;33800;-60
2021/05/22 03:30:25;;;;;;;2.55;1.05;;;;;;;23.71;43.53;99105.06;4484249;32;33590;-60
2021/05/22 03:32:53;;;;;;;3.22;1.00;;;;;;;23.71;43.45;99107.81;4483961;32;33944;-58
2021/05/22 03:35:21;;;;;;;3.78;1.23;;;;;;;23.71;43.47;99113.25;4484012;32;33618;-60
2021/05/22 03:37:48;;;;;;;2.92;1.08;;;;;;;23.71;43.48;99106.97;4484031;32;34944;-60
2021/05/22 03:40:16;;;;;;;4.22;1.08;;;;;;;23.70;43.50;99106.16;4484452;32;34958;-60
2021/05/22 03:42:44;;;;;;;2.80;1.08;;;;;;;23.70;43.60;99117.06;4484148;32;34050;-60
2021/05/22 03:45:12;;;;;;;2.30;1.10;;;;;;;23.71;43.60;99112.44;4484138;32;33936;-60
2021/05/22 03:47:39;;;;;;;3.15;1.02;;;;;;;23.70;43.52;99117.06;4483730;32;34753;-60
2021/05/22 03:50:07;;;;;;;3.83;1.08;;;;;;;23.70;43.52;99121.69;4484037;32;34775;-60
2021/05/22 03:52:35;;;;;;;4.75;0.88;;;;;;;23.71;43.45;99124.16;4484273;32;34220;-60
2021/05/22 03:55:04;;;;;;;2.83;0.90;;;;;;;23.71;43.57;99126.03;4483922;32;34270;-60
2021/05/22 03:57:32;;;;;;;4.97;0.93;;;;;;;23.70;43.65;99121.69;4484104;32;33744;-60
2021/05/22 03:59:59;;;;;;;3.05;1.00;;;;;;;23.70;43.45;99122.50;4483972;32;34130;-60
2021/05/22 04:02:27;;;;;;;4.12;1.15;;;;;;;23.70;43.53;99122.50;4483700;32;34000;-60
2021/05/22 04:04:55;;;;;;;6.30;1.10;;;;;;;23.69;43.55;99120.84;4483976;32;33459;-60
2021/05/22 04:07:23;;;;;;;4.60;1.27;;;;;;;23.69;43.55;99129.03;4483922;32;34063;-60
2021/05/22 04:09:50;;;;;;;2.72;1.00;;;;;;;23.70;43.50;99127.13;4483790;32;33739;-60
2021/05/22 04:12:18;;;;;;;2.75;0.90;;;;;;;23.71;43.57;99126.03;4483876;32;34541;-60
2021/05/22 04:14:46;;;;;;;3.55;1.12;;;;;;;23.70;43.59;99135.28;4483939;32;33626;-59
2021/05/22 04:17:13;;;;;;;4.00;0.88;;;;;;;23.69;43.49;99139.91;4483668;32;33653;-60
2021/05/22 04:19:41;;;;;;;3.20;1.00;;;;;;;23.70;43.50;99143.47;4483838;32;35144;-60
2021/05/22 04:22:09;;;;;;;4.25;1.20;;;;;;;23.70;43.43;99129.84;4483844;32;34524;-60
2021/05/22 04:24:36;;;;;;;4.03;0.88;;;;;;;23.70;43.52;99138.84;4483634;32;33566;-61
2021/05/22 04:27:04;;;;;;;3.47;1.00;;;;;;;23.68;43.48;99133.63;4483963;32;34573;-60
2021/05/22 04:29:32;;;;;;;2.97;1.10;;;;;;;23.68;43.44;99143.69;4483720;32;33636;-61
2021/05/22 04:31:59;;;;;;;5.32;1.05;;;;;;;23.70;43.35;99143.47;4483515;32;33928;-60
2021/05/22 04:34:27;;;;;;;3.87;1.00;;;;;;;23.68;43.25;99136.34;4483989;32;33224;-60
2021/05/22 04:36:55;;;;;;;2.33;0.90;;;;;;;23.69;43.23;99137.19;4483769;32;33969;-60
2021/05/22 04:39:22;;;;;;;4.35;1.30;;;;;;;23.69;43.20;99139.91;4483360;32;34541;-59
2021/05/22 04:41:50;;;;;;;4.10;1.08;;;;;;;23.68;43.35;99139.06;4483585;32;34952;-60
2021/05/22 04:44:17;;;;;;;3.45;1.12;;;;;;;23.69;43.36;99148.09;4483694;32;34291;-60
2021/05/22 04:46:45;;;;;;;2.22;0.90;;;;;;;23.68;43.66;99160.03;4483579;32;33838;-60
2021/05/22 04:49:13;;;;;;;2.33;0.95;;;;;;;23.69;43.49;99158.97;4483835;32;34016;-60
2021/05/22 04:51:41;;;;;;;3.85;1.08;;;;;;;23.68;43.37;99160.84;4483516;32;34009;-60
2021/05/22 04:54:09;;;;;;;2.70;1.05;;;;;;;23.67;43.51;99161.94;4483167;32;33438;-60
2021/05/22 04:56:36;;;;;;;1.40;1.00;;;;;;;23.70;43.75;99178.87;4483293;32;33788;-60
2021/05/22 04:59:04;;;;;;;3.10;1.25;;;;;;;23.69;43.58;99172.59;4482375;32;33818;-60
2021/05/22 05:01:32;;;;;;;2.40;0.75;;;;;;;23.70;43.47;99176.16;4483378;32;33842;-60
2021/05/22 05:04:00;;;;;;;3.33;0.90;;;;;;;23.70;43.46;99176.16;4483323;32;33707;-61
2021/05/22 05:06:27;;;;;;;4.28;0.90;;;;;;;23.68;43.52;99179.91;4483552;32;33810;-60
2021/05/22 05:08:55;;;;;;;3.58;1.23;;;;;;;23.70;43.42;99189.78;4468851;32;33906;-60
2021/05/22 05:11:23;;;;;;;3.33;1.25;;;;;;;23.69;43.43;99188.94;4483172;32;33726;-60
2021/05/22 05:13:50;;;;;;;2.25;1.10;;;;;;;23.70;43.46;99206.94;4483117;32;33295;-60
2021/05/22 05:16:18;;;;;;;3.97;0.70;;;;;;;23.70;43.46;99197.94;4483045;32;33647;-59
2021/05/22 05:18:45;;;;;;;4.40;1.10;;;;;;;23.70;43.45;99201.50;4483171;32;33805;-60
2021/05/22 05:21:13;;;;;;;4.00;0.80;;;;;;;23.70;43.47;99201.50;4483020;32;34994;-60
2021/05/22 05:23:41;;;;;;;5.55;1.02;;;;;;;23.70;43.52;99206.13;4482618;32;33527;-61
2021/05/22 05:26:08;;;;;;;3.85;0.90;;;;;;;23.69;43.61;99199.84;4483229;32;33736;-60
2021/05/22 05:28:36;;;;;;;2.67;0.93;;;;;;;23.70;43.70;99197.94;4483006;32;34794;-60
2021/05/22 05:31:04;;;;;;;3.05;0.80;;;;;;;23.70;43.65;99206.13;4482565;32;34780;-60
2021/05/22 05:33:32;;;;;;;2.65;1.00;;;;;;;23.70;43.65;99200.66;4481015;32;34265;-57
2021/05/22 05:36:00;;;;;;;1.90;0.80;;;;;;;23.70;43.56;99196.03;4476984;32;33959;-58
2021/05/22 05:38:31;;;;;;;3.33;1.00;;;;;;;23.71;43.54;99196.88;4481126;32;34930;-59
2021/05/22 05:40:59;;;;;;;5.95;1.05;;;;;;;23.70;43.46;99195.22;4482739;32;33854;-59
2021/05/22 05:43:26;;;;;;;2.80;0.90;;;;;;;23.70;43.54;99197.94;4471470;32;34241;-60
2021/05/22 05:45:54;;;;;;;2.15;0.82;;;;;;;23.70;43.63;99196.03;4466981;32;34562;-58
2021/05/22 05:48:22;;;;;;;5.30;1.10;;;;;;;23.69;43.69;99186.22;4466980;32;34497;-59
2021/05/22 05:50:49;;;;;;;3.25;1.17;;;;;;;23.70;43.69;99187.03;4466965;32;34766;-60
2021/05/22 05:53:18;;;;;;;4.28;1.10;;;;;;;23.70;43.69;99195.22;4466794;32;34438;-58
2021/05/22 05:55:47;;;;;;;2.90;1.00;;;;;;;23.70;43.68;99203.38;4478619;32;33858;-59
2021/05/22 05:58:15;;;;;;;2.42;0.77;;;;;;;23.68;43.63;99209.88;4482500;32;33901;-59
2021/05/22 06:00:42;;;;;;;3.97;1.10;;;;;;;23.70;43.69;99206.94;4482310;32;34926;-59
2021/05/22 06:03:10;;;;;;;2.80;0.93;;;;;;;23.70;43.71;99203.38;4481586;32;33497;-59
2021/05/22 06:05:38;;;;;;;1.67;0.88;;;;;;;23.70;43.72;99208.84;4482201;32;33963;-60
2021/05/22 06:08:07;;;;;;;4.15;0.95;;;;;;;23.69;43.68;99205.28;4482391;32;33519;-60
2021/05/22 06:10:34;;;;;;;1.87;0.73;;;;;;;23.68;43.71;99206.34;4484410;32;33946;-60
2021/05/22 06:13:02;;;;;;;2.70;0.80;;;;;;;23.68;43.72;99215.31;4484434;32;33655;-60
2021/05/22 06:15:33;;;;;;;3.30;0.95;;;;;;;23.68;43.70;99226.22;4484553;32;34483;-59
2021/05/22 06:18:00;;;;;;;2.95;0.95;;;;;;;23.68;43.73;99230.84;4484731;32;33905;-60
2021/05/22 06:20:28;;;;;;;2.87;0.82;;;;;;;23.70;43.69;99225.19;4484596;32;35011;-60
2021/05/22 06:22:56;;;;;;;1.42;0.70;;;;;;;23.68;43.69;99228.12;4484593;32;33519;-60
2021/05/22 06:25:24;;;;;;;2.55;0.98;;;;;;;23.68;43.77;99230.84;4484929;32;33857;-60
2021/05/22 06:27:51;;;;;;;1.67;0.80;;;;;;;23.67;43.75;99230.03;4484344;32;33537;-59
2021/05/22 06:30:19;;;;;;;2.45;0.93;;;;;;;23.67;43.70;99240.91;4484852;32;33876;-59
2021/05/22 06:32:47;;;;;;;2.70;0.70;;;;;;;23.70;43.43;99236.06;4484663;32;34066;-60
2021/05/22 06:35:15;;;;;;;1.90;0.85;;;;;;;23.69;43.48;99240.69;4484766;32;34535;-60
2021/05/22 06:37:42;;;;;;;6.78;1.00;;;;;;;23.68;43.51;99244.47;4484710;32;33884;-60
2021/05/22 06:40:12;;;;;;;3.28;0.82;;;;;;;23.68;43.64;99233.56;4484670;32;35115;-60
2021/05/22 06:42:40;;;;;;;6.05;0.88;;;;;;;23.68;43.56;99247.19;4484523;32;33487;-60
2021/05/22 06:45:11;;;;;;;1.45;0.70;;;;;;;23.68;43.61;99250.72;4484615;32;33784;-60
2021/05/22 06:47:38;;;;;;;2.53;1.00;;;;;;;23.68;43.68;99253.47;4484824;32;33479;-59
2021/05/22 06:50:06;;;;;;;4.10;1.23;;;;;;;23.70;43.54;99252.41;4484448;32;34401;-60
2021/05/22 06:52:34;;;;;;;2.65;1.05;;;;;;;23.71;43.50;99256.78;4484603;32;33390;-60
2021/05/22 06:55:03;;;;;;;2.62;0.70;;;;;;;23.70;43.67;99258.69;4484143;32;34647;-59
2021/05/22 06:57:30;;;;;;;5.43;1.15;;;;;;;23.70;43.65;99258.69;4484303;32;34738;-59
2021/05/22 06:59:58;;;;;;;4.70;1.02;;;;;;;23.71;43.56;99260.34;4484364;32;34209;-60
2021/05/22 07:02:26;;;;;;;2.80;1.20;;;;;;;23.71;43.50;99267.69;4484149;32;34346;-60
2021/05/22 07:04:54;;;;;;;3.37;0.85;;;;;;;23.71;43.61;99267.69;4484379;32;34666;-60
2021/05/22 07:07:21;;;;;;;1.90;0.90;;;;;;;23.72;43.53;99272.88;4480726;32;33809;-60
2021/05/22 07:09:49;;;;;;;1.95;0.80;;;;;;;23.71;43.64;99267.69;4477815;32;34015;-61
2021/05/22 07:12:17;;;;;;;3.83;0.90;;;;;;;23.72;43.59;99275.59;4477741;32;33634;-59
2021/05/22 07:14:44;;;;;;;3.08;0.88;;;;;;;23.72;43.62;99269.34;4477660;32;33764;-58
2021/05/22 07:17:12;;;;;;;2.47;0.85;;;;;;;23.73;43.62;99265.53;4479697;32;33977;-58
2021/05/22 07:19:39;;;;;;;7.00;1.08;;;;;;;23.72;43.66;99263.88;4484350;32;34051;-60
2021/05/22 07:22:07;;;;;;;3.50;0.90;;;;;;;23.73;43.56;99262.81;4483502;32;34371;-62
2021/05/22 07:24:35;;;;;;;3.12;1.10;;;;;;;23.73;43.58;99254.63;4455029;32;33542;-61
2021/05/22 07:27:03;;;;;;;6.45;1.15;;;;;;;23.70;42.83;99252.41;4468855;32;33885;-61
2021/05/22 07:29:30;;;;;;;6.00;1.23;;;;;;;23.64;42.44;99249.59;4468550;32;33981;-61
2021/05/22 07:31:58;;;;;;;9.38;1.92;;;;;;;23.66;42.60;99252.88;4468242;32;33494;-60
2021/05/22 07:34:26;;;;;;;4.07;1.05;;;;;;;23.66;42.78;99255.59;4468618;32;33893;-61
2021/05/22 07:36:53;;;;;;;8.32;1.75;;;;;;;23.66;42.76;99252.88;4468407;32;34719;-61
2021/05/22 07:39:21;;;;;;;6.40;1.25;;;;;;;23.64;42.48;99260.47;4468417;32;33957;-60
2021/05/22 07:41:49;;;;;;;3.53;0.95;;;;;;;23.63;42.12;99264.22;4468463;32;33326;-60
2021/05/22 07:44:16;;;;;;;4.85;1.30;;;;;;;23.61;42.55;99271.81;4468405;32;33486;-60
2021/05/22 07:46:47;;;;;;;5.43;1.12;;;;;;;23.61;42.39;99260.09;4468272;32;34693;-61
2021/05/22 07:49:14;;;;;;;5.12;1.30;;;;;;;23.61;42.07;99282.72;4468252;32;34078;-60
2021/05/22 07:51:42;;;;;;;2.83;1.20;;;;;;;23.61;42.37;99285.44;4468390;32;33280;-61
2021/05/22 07:54:10;;;;;;;2.37;1.10;;;;;;;23.60;42.26;99285.69;4468194;32;33657;-61
2021/05/22 07:56:38;;;;;;;8.57;1.85;;;;;;;23.59;42.52;99276.66;4468309;32;34996;-59
2021/05/22 07:59:05;;;;;;;7.57;1.12;;;;;;;23.58;42.16;99275.00;4474963;32;34088;-60
2021/05/22 08:01:33;;;;;;;9.55;1.70;;;;;;;23.60;41.48;99274.78;4481228;32;33570;-59
2021/05/22 08:04:01;;;;;;;11.05;1.60;;;;;;;23.58;40.77;99283.19;4474225;32;33720;-59
2021/05/22 08:06:29;;;;;;;9.88;2.00;;;;;;;23.58;40.43;99275.00;4481513;32;33824;-59
2021/05/22 08:08:56;;;;;;;6.55;1.58;;;;;;;23.59;39.90;99278.56;4468157;32;34012;-60
2021/05/22 08:11:24;;;;;;;9.00;1.62;;;;;;;23.57;39.34;99278.81;4468533;32;34179;-59
2021/05/22 08:13:52;;;;;;;12.40;1.87;;;;;;;23.55;39.47;99278.22;4468059;32;33851;-61
2021/05/22 08:16:19;;;;;;;20.33;2.08;;;;;;;23.55;39.55;99291.84;4472220;32;33811;-61
2021/05/22 08:18:47;;;;;;;19.67;3.20;;;;;;;23.54;39.81;99300.25;4483876;32;34211;-60
2021/05/22 08:21:17;;;;;;;10.25;2.58;;;;;;;23.53;40.02;99296.69;4483809;32;33527;-60
2021/05/22 08:23:45;;;;;;;19.20;3.37;;;;;;;23.60;40.04;99300.13;4483667;32;33568;-61
2021/05/22 08:26:13;;;;;;;12.18;2.80;;;;;;;23.68;39.95;99298.94;4483740;32;33941;-60
2021/05/22 08:29:03;;;;;;;18.08;2.53;;;;;;;23.74;39.94;99294.44;4483603;32;33908;-61
2021/05/22 08:31:32;;;;;;;21.77;2.80;;;;;;;23.84;39.93;99300.09;4483670;32;33437;-59
2021/05/22 08:33:59;;;;;;;29.12;3.00;;;;;;;23.89;40.26;99289.31;4482335;32;33756;-61
2021/05/22 08:36:28;;;;;;;13.25;2.87;;;;;;;23.94;40.31;99292.13;4483796;32;33923;-62
2021/05/22 08:38:55;;;;;;;15.13;2.90;;;;;;;23.97;40.10;99293.53;4482604;32;34951;-63
2021/05/22 08:41:23;;;;;;;17.25;2.70;;;;;;;23.98;39.54;99292.47;4481834;32;33641;-63
2021/05/22 08:43:51;;;;;;;20.77;2.70;;;;;;;23.95;39.71;99299.22;4469484;32;33596;-62
2021/05/22 08:46:20;;;;;;;16.37;3.60;;;;;;;23.96;39.60;99302.78;4483322;32;33795;-63
2021/05/22 08:48:48;;;;;;;21.67;3.00;;;;;;;23.93;39.47;99306.84;4483388;32;34164;-62
2021/05/22 08:51:18;;;;;;;18.42;2.33;;;;;;;23.91;39.50;99298.06;4483218;32;33312;-61
2021/05/22 08:53:46;;;;;;;;;;;;;;;23.87;39.72;99291.44;4483824;32;33867;-64
2021/05/22 08:56:14;;;;;;;16.10;2.67;;;;;;;23.93;39.44;99287.75;4483318;32;34238;-63
2021/05/22 08:58:42;;;;;;;11.60;2.62;;;;;;;23.84;39.58;99279.13;4483380;32;34791;-63
2021/05/22 09:01:10;;;;;;;10.55;2.78;;;;;;;23.81;39.87;99301.41;4483094;32;33594;-64
2021/05/22 09:03:38;;;;;;;17.02;2.15;;;;;;;23.80;39.86;99290.75;4483102;32;34398;-63
2021/05/22 09:06:05;;;;;;;11.70;2.33;;;;;;;23.78;39.68;99292.87;4483247;32;33532;-63
2021/05/22 09:08:33;;;;;;;16.05;2.33;;;;;;;23.76;39.67;99301.28;4483104;32;34101;-63
2021/05/22 09:11:02;;;;;;;9.98;2.17;;;;;;;23.74;39.60;99299.91;4482896;32;33626;-63
2021/05/22 09:13:30;;;;;;;17.52;2.70;;;;;;;23.73;39.63;99303.66;4483110;32;33667;-63
2021/05/22 09:15:59;;;;;;;8.27;2.15;;;;;;;23.73;39.37;99295.50;4483058;32;33862;-63
2021/05/22 09:18:34;;;;;;;14.07;2.62;;;;;;;23.70;39.64;99296.81;4483046;32;34975;-64
2021/05/22 09:21:04;;;;;;;10.40;1.90;;;;;;;23.68;39.54;99302.50;4482773;32;34534;-63
2021/05/22 09:23:35;;;;;;;8.65;2.12;;;;;;;23.67;39.59;99303.56;4483078;32;33815;-63
2021/05/22 09:26:05;;;;;;;13.50;2.37;;;;;;;23.66;39.74;99296.47;4483044;32;33834;-62
2021/05/22 09:28:37;;;;;;;6.47;1.85;;;;;;;23.66;39.66;99303.81;4479157;32;34567;-62
2021/05/22 09:31:05;;;;;;;10.95;1.90;;;;;;;23.66;39.57;99323.69;4466978;32;33437;-62
2021/05/22 09:33:34;;;;;;;5.35;1.92;;;;;;;23.64;39.68;99317.69;4474685;32;33583;-62
2021/05/22 09:36:07;;;;;;;5.18;1.67;;;;;;;23.64;39.50;99328.56;4481633;32;33936;-61
2021/05/22 09:38:42;;;;;;;9.32;2.00;;;;;;;23.63;39.95;99320.59;4482749;32;34009;-63
2021/05/22 09:41:23;;;;;;;9.18;1.90;;;;;;;23.62;39.72;99324.38;4482374;32;34525;-63
2021/05/22 09:44:13;;;;;;;6.47;1.95;;;;;;;23.61;39.81;99339.91;4482921;32;34800;-63
2021/05/22 09:46:46;;;;;;;27.15;3.95;;;;;;;23.64;39.66;99331.31;4484776;32;35443;-64
2021/05/22 09:49:28;;;;;;;24.00;3.55;;;;;;;23.65;40.03;99329.41;4483991;32;34629;-62
2021/05/22 09:51:59;;;;;;;43.80;4.30;;;;;;;23.64;40.01;99330.44;4479083;32;34375;-63
2021/05/22 09:54:46;;;;;;;46.00;3.97;;;;;;;23.60;40.04;99340.97;4485056;32;33694;-63
2021/05/22 09:57:15;;;;;;;37.70;3.60;;;;;;;23.64;39.97;99342.19;4484585;32;33886;-63
2021/05/22 10:00:12;;;;;;;30.27;3.67;;;;;;;23.60;39.83;99351.03;4484588;32;34019;-63
2021/05/22 10:02:49;;;;;;;30.50;3.40;;;;;;;23.65;39.85;99351.19;4484631;32;33447;-63
2021/05/22 10:05:33;;;;;;;15.48;2.42;;;;;;;23.63;40.04;99364.16;4484652;32;33844;-63
2021/05/22 10:08:03;;;;;;;18.15;3.03;;;;;;;23.59;40.12;99362.97;4484895;32;33936;-63
2021/05/22 10:10:41;;;;;;;29.55;2.90;;;;;;;23.57;39.91;99367.84;4484528;32;34051;-63
2021/05/22 10:13:09;;;;;;;25.40;3.17;;;;;;;23.60;39.72;99372.84;4484520;32;34470;-66
2021/05/22 10:15:37;;;;;;;31.55;3.03;;;;;;;23.58;39.80;99372.22;4484576;32;33753;-67
2021/05/22 10:18:05;;;;;;;12.20;1.92;;;;;;;23.59;39.99;99380.16;4470354;32;33799;-66
2021/05/22 10:20:33;;;;;;;11.30;1.80;;;;;;;23.57;39.74;99381.47;4470501;32;34664;-67
2021/05/22 10:23:01;;;;;;;13.15;1.83;;;;;;;23.57;39.54;99381.47;4484742;32;34164;-67
2021/05/22 10:25:28;;;;;;;16.48;2.45;;;;;;;23.54;39.51;99380.03;4484437;32;34816;-67
2021/05/22 10:27:56;;;;;;;16.62;2.40;;;;;;;23.53;39.54;99375.66;4484420;32;33808;-63
2021/05/22 10:30:24;;;;;;;17.33;2.10;;;;;;;23.52;39.59;99374.00;4484367;32;34047;-63
2021/05/22 10:33:01;;;;;;;9.20;1.80;;;;;;;23.49;39.74;99390.81;4484896;32;33539;-64
2021/05/22 10:35:29;;;;;;;15.02;2.00;;;;;;;23.48;40.00;99388.34;4484424;32;33806;-64
2021/05/22 10:37:57;;;;;;;18.98;1.92;;;;;;;23.45;40.10;99383.34;4470180;32;33532;-63
2021/05/22 10:40:45;;;;;;;9.23;1.65;;;;;;;23.42;40.18;99385.50;4483003;32;34085;-64
2021/05/22 10:43:13;;;;;;;9.70;1.70;;;;;;;23.47;40.30;99375.78;4484766;32;34157;-62
2021/05/22 10:45:42;;;;;;;8.95;1.85;;;;;;;23.45;40.30;99375.19;4482551;32;34601;-61
2021/05/22 10:48:15;;;;;;;8.63;1.65;;;;;;;23.45;40.33;99372.47;4482464;32;34691;-63
2021/05/22 10:50:47;;;;;;;7.00;1.45;;;;;;;23.45;40.33;99378.72;4482277;32;33866;-63
2021/05/22 10:53:25;;;;;;;6.93;1.23;;;;;;;23.44;40.35;99377.09;4482559;32;34332;-63
2021/05/22 10:56:15;;;;;;;6.37;1.50;;;;;;;23.43;40.37;99387.16;4481904;32;34209;-63
2021/05/22 10:58:57;;;;;;;6.47;1.40;;;;;;;23.42;40.35;99387.41;4483565;32;34563;-63
2021/05/22 11:01:25;;;;;;;7.43;1.60;;;;;;;23.43;40.39;99386.31;4483863;32;35020;-63
2021/05/22 11:04:06;;;;;;;5.87;1.12;;;;;;;23.41;40.44;99391.19;4484516;32;33355;-63
2021/05/22 11:06:55;;;;;;;10.73;1.65;;;;;;;23.40;40.38;99394.94;4484450;32;33905;-63
2021/05/22 11:09:31;;;;;;;11.85;1.85;;;;;;;23.40;40.41;99395.78;4484287;32;34687;-63
2021/05/22 11:11:59;;;;;;;7.47;1.60;;;;;;;23.36;40.37;99400.06;4483916;32;34119;-63
2021/05/22 11:14:36;;;;;;;5.20;1.33;;;;;;;23.38;40.43;99406.09;4484404;32;33445;-64
2021/05/22 11:17:20;;;;;;;6.68;1.05;;;;;;;23.38;40.49;99406.09;4484218;32;34486;-63
2021/05/22 11:19:57;;;;;;;7.95;1.52;;;;;;;23.39;40.38;99406.91;4484353;32;33647;-63
2021/05/22 11:22:28;;;;;;;6.57;1.60;;;;;;;23.37;40.40;99390.00;4483850;32;34085;-63
2021/05/22 11:25:06;;;;;;;4.00;1.42;;;;;;;23.32;40.51;99393.44;4484293;32;33503;-62
2021/05/22 11:27:43;;;;;;;4.57;1.30;;;;;;;23.33;40.54;99416.03;4484138;32;33863;-63
2021/05/22 11:30:12;;;;;;;21.23;2.33;;;;;;;23.33;40.49;99413.31;4484153;32;33949;-63
2021/05/22 11:32:57;;;;;;;23.30;3.12;;;;;;;23.30;40.25;99422.75;4483667;32;34088;-64
2021/05/22 11:35:27;;;;;;;12.40;2.47;;;;;;;23.31;40.42;99418.97;4484149;32;33615;-64
2021/05/22 11:38:12;;;;;;;12.25;2.10;;;;;;;23.26;40.24;99427.00;4484004;32;34590;-64
2021/05/22 11:40:56;;;;;;;8.60;1.67;;;;;;;23.26;40.26;99426.19;4482938;32;33923;-64
2021/05/22 11:43:31;;;;;;;8.55;1.70;;;;;;;23.30;40.10;99420.03;4484164;32;33986;-64